Trout Creek, MI

6:35 PM EST on December 22, 2014 (GMT -0500)
RAWS KENTON MI US | Change Station
CLOSE
Current Station
Personal Weather Station
Location: Nisula, MI
Elevation: 1262 ft
Nearby Weather Stations
Active Advisory: Winter Weather Advisory

Elev 1262 ft 46.61 °N, 88.91 °W | Updated 39 minutes ago

Overcast
Overcast
33 °F
Feels Like 33 °F
N
2
Wind Variable Wind from SE
Gusts 6.0 mph

Today
High -- | Low -- °F
--% Chance of Precip.
Yesterday
High -- | Low -- °F
Precip. -- in
8:37 AM 5:12 PM
New Moon, 1% visible
Pressure 29.77 in
Visibility 5.0 miles
Clouds Overcast 600 ft
Windchill 33 °F
Dew Point 32 °F
Humidity 97%
Rainfall 0.00 in
Snow Depth Not available.
UV 0 out of 12
Pollen .10 out of 12
Air Quality Not available.
Flu Activity Not available.
METAR KLNL 222315Z AUTO 12005KT 5SM BR OVC006 01/00 A2977 RMK AO2 T00060000

More Conditions Fewer Conditions

Pressure 29.77 in
Visibility 5.0 miles
Clouds Overcast 600 ft
Windchill 33 °F
Dew Point 32 °F
Humidity 97%
Rainfall 0.00 in
Snow Depth Not available.
UV 0 out of 12
Pollen .10 out of 12
Air Quality Not available.
Flu Activity Not available.
METAR KLNL 222315Z AUTO 12005KT 5SM BR OVC006 01/00 A2977 RMK AO2 T00060000

More Conditions Fewer Conditions

10-Day Weather Forecast

Almanac

Astronomy

Dec. 22, 2014 Rise Set
Actual Time
Civil Twilight
Nautical Twilight
Astronomical Twilight
Moon
Length of Visible Light
Length of Day
Tomorrow will be .
, % of the Moon is Illuminated

Today's Extremes

State Highs State Lows

Community

WunderPhotos

Upload Photos

1,779,715 photos uploaded!

WunderBlogs® & News

Nearby

Air Quality

  Air Quality AQ Index Pollutant
Not available.

Snow Depth

Station Depth Elevation

Earthquake Activity

City Distance Mag. Time & Date
Minimum magnitude displayed is 2.5.

Coastal Water Temperatures

Place Temperature

Nearby Weather Stations